Time,TemperatureF,DewpointF,PressureIn,WindDirection,WindDirectionDegrees,WindSpeedMPH,WindSpeedGustMPH,Humidity,HourlyPrecipIn,Conditions,Clouds,dailyrainin,SolarRadiationWatts/m^2,SoftwareType,DateUTC
2013-11-09 00:13:00,36.7,24.0,30.16,WSW,257,2.0,6.0,61,0.00,,,0.00,0,weatherlink.com 1.10,2013-11-09 05:13:00,
2013-11-09 00:29:00,36.5,24.0,30.17,WNW,284,5.0,7.0,61,0.00,,,0.00,0,weatherlink.com 1.10,2013-11-09 05:29:00,
2013-11-09 00:44:00,36.6,25.0,30.17,SW,236,4.0,8.0,62,0.00,,,0.00,0,weatherlink.com 1.10,2013-11-09 05:44:00,
2013-11-09 00:59:00,36.8,24.0,30.17,WSW,254,0.0,6.0,61,0.00,,,0.00,0,weatherlink.com 1.10,2013-11-09 05:59:00,
2013-11-09 01:14:00,36.5,24.0,30.17,West,267,2.0,7.0,61,0.00,,,0.00,0,weatherlink.com 1.10,2013-11-09 06:14:00,
2013-11-09 01:29:00,36.2,25.0,30.18,WSW,249,2.0,6.0,63,0.00,,,0.00,0,weatherlink.com 1.10,2013-11-09 06:29:00,
2013-11-09 01:44:00,36.1,24.0,30.19,WSW,248,3.0,8.0,63,0.00,,,0.00,0,weatherlink.com 1.10,2013-11-09 06:44:00,
2013-11-09 01:59:00,36.5,25.0,30.20,WNW,292,6.0,10.0,63,0.00,,,0.00,0,weatherlink.com 1.10,2013-11-09 06:59:00,
2013-11-09 02:14:00,36.7,25.0,30.19,West,259,5.0,9.0,62,0.00,,,0.00,0,weatherlink.com 1.10,2013-11-09 07:14:00,
2013-11-09 02:29:00,37.0,24.0,30.20,West,272,7.0,12.0,60,0.00,,,0.00,0,weatherlink.com 1.10,2013-11-09 07:29:00,
2013-11-09 02:44:00,37.0,24.0,30.20,West,279,9.0,12.0,60,0.00,,,0.00,0,weatherlink.com 1.10,2013-11-09 07:44:00,
2013-11-09 02:59:00,37.0,24.0,30.20,WSW,246,2.0,12.0,60,0.00,,,0.00,0,weatherlink.com 1.10,2013-11-09 07:59:00,
2013-11-09 03:14:00,36.7,24.0,30.21,West,262,9.0,9.0,61,0.00,,,0.00,0,weatherlink.com 1.10,2013-11-09 08:14:00,
2013-11-09 03:29:00,36.3,24.0,30.21,West,266,4.0,9.0,61,0.00,,,0.00,0,weatherlink.com 1.10,2013-11-09 08:29:00,
2013-11-09 03:44:00,36.0,24.0,30.21,WSW,254,3.0,7.0,62,0.00,,,0.00,0,weatherlink.com 1.10,2013-11-09 08:44:00,
2013-11-09 03:59:00,35.6,24.0,30.22,WSW,256,4.0,7.0,62,0.00,,,0.00,0,weatherlink.com 1.10,2013-11-09 08:59:00,
2013-11-09 04:29:00,34.9,24.0,30.23,West,261,2.0,8.0,65,0.00,,,0.00,0,weatherlink.com 1.10,2013-11-09 09:29:00,
2013-11-09 04:44:00,34.6,24.0,30.23,West,266,3.0,7.0,66,0.00,,,0.00,0,weatherlink.com 1.10,2013-11-09 09:44:00,
2013-11-09 04:59:00,34.4,24.0,30.24,WSW,252,4.0,7.0,67,0.00,,,0.00,0,weatherlink.com 1.10,2013-11-09 09:59:00,
2013-11-09 05:14:00,34.2,25.0,30.24,West,279,3.0,7.0,68,0.00,,,0.00,0,weatherlink.com 1.10,2013-11-09 10:14:00,
2013-11-09 05:29:00,34.1,25.0,30.24,NW,304,4.0,7.0,68,0.00,,,0.00,0,weatherlink.com 1.10,2013-11-09 10:29:00,
2013-11-09 05:44:00,34.0,24.0,30.24,WNW,284,4.0,10.0,68,0.00,,,0.00,0,weatherlink.com 1.10,2013-11-09 10:44:00,
2013-11-09 05:59:00,33.9,24.0,30.24,WNW,287,6.0,8.0,68,0.00,,,0.00,0,weatherlink.com 1.10,2013-11-09 10:59:00,
2013-11-09 06:14:00,33.9,24.0,30.25,WNW,288,2.0,7.0,67,0.00,,,0.00,0,weatherlink.com 1.10,2013-11-09 11:14:00,
2013-11-09 06:29:00,33.7,24.0,30.26,West,279,5.0,6.0,68,0.00,,,0.00,0,weatherlink.com 1.10,2013-11-09 11:29:00,
2013-11-09 06:44:00,33.8,24.0,30.26,West,267,4.0,9.0,67,0.00,,,0.00,12,weatherlink.com 1.10,2013-11-09 11:44:00,
2013-11-09 06:59:00,33.9,24.0,30.27,WSW,242,4.0,6.0,67,0.00,,,0.00,33,weatherlink.com 1.10,2013-11-09 11:59:00,
2013-11-09 07:15:00,34.2,24.0,30.28,West,263,2.0,7.0,67,0.00,,,0.00,70,weatherlink.com 1.10,2013-11-09 12:15:00,
2013-11-09 07:30:00,35.2,24.0,30.27,WNW,283,9.0,10.0,64,0.00,,,0.00,114,weatherlink.com 1.10,2013-11-09 12:30:00,
2013-11-09 07:45:00,36.4,24.0,30.28,NW,316,5.0,8.0,61,0.00,,,0.00,167,weatherlink.com 1.10,2013-11-09 12:45:00,
2013-11-09 08:00:00,37.4,24.0,30.28,West,277,5.0,10.0,58,0.00,,,0.00,220,weatherlink.com 1.10,2013-11-09 13:00:00,
2013-11-09 08:15:00,38.0,23.0,30.28,WNW,300,4.0,12.0,56,0.00,,,0.00,267,weatherlink.com 1.10,2013-11-09 13:15:00,
2013-11-09 08:30:00,38.7,24.0,30.27,NW,308,5.0,10.0,56,0.00,,,0.00,302,weatherlink.com 1.10,2013-11-09 13:30:00,
2013-11-09 08:45:00,39.8,23.0,30.27,NW,314,9.0,13.0,52,0.00,,,0.00,345,weatherlink.com 1.10,2013-11-09 13:45:00,
2013-11-09 09:00:00,40.2,23.0,30.27,West,277,7.0,15.0,51,0.00,,,0.00,378,weatherlink.com 1.10,2013-11-09 14:00:00,
2013-11-09 09:15:00,40.5,23.0,30.27,West,272,4.0,14.0,51,0.00,,,0.00,276,weatherlink.com 1.10,2013-11-09 14:15:00,
2013-11-09 09:30:00,40.2,23.0,30.26,WNW,300,8.0,15.0,51,0.00,,,0.00,388,weatherlink.com 1.10,2013-11-09 14:30:00,
2013-11-09 09:45:00,40.6,23.0,30.25,NNW,333,9.0,17.0,49,0.00,,,0.00,373,weatherlink.com 1.10,2013-11-09 14:45:00,
2013-11-09 10:00:00,41.0,22.0,30.25,WNW,286,8.0,17.0,48,0.00,,,0.00,330,weatherlink.com 1.10,2013-11-09 15:00:00,
2013-11-09 10:15:00,41.4,23.0,30.25,NNW,341,4.0,16.0,48,0.00,,,0.00,302,weatherlink.com 1.10,2013-11-09 15:15:00,
2013-11-09 10:30:00,41.7,23.0,30.24,West,265,9.0,15.0,47,0.00,,,0.00,418,weatherlink.com 1.10,2013-11-09 15:30:00,
2013-11-09 10:45:00,41.8,23.0,30.24,NNW,336,13.0,19.0,47,0.00,,,0.00,613,weatherlink.com 1.10,2013-11-09 15:45:00,
2013-11-09 11:00:00,42.5,23.0,30.23,West,275,9.0,13.0,46,0.00,,,0.00,457,weatherlink.com 1.10,2013-11-09 16:00:00,
2013-11-09 11:15:00,43.0,23.0,30.23,WNW,288,4.0,18.0,45,0.00,,,0.00,561,weatherlink.com 1.10,2013-11-09 16:15:00,
2013-11-09 11:30:00,43.5,23.0,30.22,West,281,11.0,15.0,44,0.00,,,0.00,503,weatherlink.com 1.10,2013-11-09 16:30:00,
2013-11-09 11:45:00,44.3,22.0,30.21,WSW,252,5.0,14.0,42,0.00,,,0.00,534,weatherlink.com 1.10,2013-11-09 16:45:00,
2013-11-09 12:00:00,44.3,22.0,30.21,North,360,5.0,15.0,41,0.00,,,0.00,323,weatherlink.com 1.10,2013-11-09 17:00:00,
2013-11-09 12:15:00,44.9,22.0,30.20,NNW,348,2.0,12.0,41,0.00,,,0.00,236,weatherlink.com 1.10,2013-11-09 17:15:00,
2013-11-09 12:30:00,45.6,21.0,30.20,NW,320,10.0,16.0,38,0.00,,,0.00,241,weatherlink.com 1.10,2013-11-09 17:30:00,
2013-11-09 12:45:00,45.5,21.0,30.20,WNW,288,13.0,17.0,38,0.00,,,0.00,223,weatherlink.com 1.10,2013-11-09 17:45:00,
2013-11-09 13:00:00,45.6,21.0,30.19,WNW,303,10.0,14.0,38,0.00,,,0.00,230,weatherlink.com 1.10,2013-11-09 18:00:00,
2013-11-09 13:15:00,45.5,22.0,30.19,NW,308,4.0,13.0,40,0.00,,,0.00,206,weatherlink.com 1.10,2013-11-09 18:15:00,
2013-11-09 13:31:00,45.5,22.0,30.18,West,278,6.0,16.0,39,0.00,,,0.00,209,weatherlink.com 1.10,2013-11-09 18:31:00,
2013-11-09 13:46:00,45.2,22.0,30.19,NW,323,3.0,13.0,40,0.00,,,0.00,163,weatherlink.com 1.10,2013-11-09 18:46:00,
2013-11-09 14:01:00,44.5,22.0,30.18,West,277,5.0,15.0,41,0.00,,,0.00,105,weatherlink.com 1.10,2013-11-09 19:01:00,
2013-11-09 14:16:00,44.3,22.0,30.17,WNW,288,3.0,13.0,42,0.00,,,0.00,104,weatherlink.com 1.10,2013-11-09 19:16:00,
2013-11-09 14:31:00,44.2,23.0,30.18,WNW,303,6.0,15.0,44,0.00,,,0.00,114,weatherlink.com 1.10,2013-11-09 19:31:00,
2013-11-09 14:46:00,43.7,24.0,30.18,WNW,283,10.0,14.0,46,0.00,,,0.00,86,weatherlink.com 1.10,2013-11-09 19:46:00,
2013-11-09 15:01:00,43.2,24.0,30.18,WNW,303,3.0,12.0,46,0.00,,,0.00,98,weatherlink.com 1.10,2013-11-09 20:01:00,
2013-11-09 15:16:00,43.7,24.0,30.19,West,273,5.0,12.0,46,0.00,,,0.00,149,weatherlink.com 1.10,2013-11-09 20:16:00,
2013-11-09 15:31:00,44.0,23.0,30.18,West,281,9.0,13.0,44,0.00,,,0.00,93,weatherlink.com 1.10,2013-11-09 20:31:00,
2013-11-09 15:46:00,44.1,23.0,30.18,WSW,246,6.0,13.0,44,0.00,,,0.00,53,weatherlink.com 1.10,2013-11-09 20:46:00,
2013-11-09 16:01:00,43.7,23.0,30.18,WSW,238,4.0,11.0,45,0.00,,,0.00,19,weatherlink.com 1.10,2013-11-09 21:01:00,
2013-11-09 16:16:00,43.4,24.0,30.18,West,263,0.0,6.0,46,0.00,,,0.00,11,weatherlink.com 1.10,2013-11-09 21:16:00,
2013-11-09 16:31:00,43.1,23.0,30.18,West,264,3.0,6.0,46,0.00,,,0.00,0,weatherlink.com 1.10,2013-11-09 21:31:00,
2013-11-09 16:46:00,43.1,24.0,30.18,West,260,1.0,4.0,47,0.00,,,0.00,0,weatherlink.com 1.10,2013-11-09 21:46:00,
2013-11-09 17:01:00,42.9,24.0,30.18,West,271,1.0,3.0,48,0.00,,,0.00,0,weatherlink.com 1.10,2013-11-09 22:01:00,
2013-11-09 17:16:00,42.9,24.0,30.18,West,260,2.0,4.0,48,0.00,,,0.00,0,weatherlink.com 1.10,2013-11-09 22:16:00,
2013-11-09 17:31:00,42.9,25.0,30.18,West,262,2.0,5.0,49,0.00,,,0.00,0,weatherlink.com 1.10,2013-11-09 22:31:00,
2013-11-09 17:46:00,43.0,25.0,30.18,WSW,246,2.0,4.0,49,0.00,,,0.00,0,weatherlink.com 1.10,2013-11-09 22:46:00,
2013-11-09 18:01:00,43.1,25.0,30.18,WSW,249,0.0,5.0,50,0.00,,,0.00,0,weatherlink.com 1.10,2013-11-09 23:01:00,
2013-11-09 18:16:00,43.1,26.0,30.19,SW,225,1.0,5.0,51,0.00,,,0.00,0,weatherlink.com 1.10,2013-11-09 23:16:00,
2013-11-09 18:31:00,43.4,27.0,30.18,WSW,254,3.0,4.0,52,0.00,,,0.00,0,weatherlink.com 1.10,2013-11-09 23:31:00,
2013-11-09 18:46:00,43.5,27.0,30.18,WSW,250,2.0,7.0,52,0.00,,,0.00,0,weatherlink.com 1.10,2013-11-09 23:46:00,
2013-11-09 19:01:00,43.5,27.0,30.17,SW,223,0.0,7.0,52,0.00,,,0.00,0,weatherlink.com 1.10,2013-11-10 00:01:00,
2013-11-09 19:16:00,43.3,27.0,30.17,SW,227,4.0,5.0,53,0.00,,,0.00,0,weatherlink.com 1.10,2013-11-10 00:16:00,
2013-11-09 19:31:00,43.3,27.0,30.18,WSW,252,1.0,5.0,54,0.00,,,0.00,0,weatherlink.com 1.10,2013-11-10 00:31:00,
2013-11-09 19:46:00,43.4,28.0,30.19,SW,223,2.0,7.0,54,0.00,,,0.00,0,weatherlink.com 1.10,2013-11-10 00:46:00,
2013-11-09 20:01:00,43.4,28.0,30.18,WSW,244,1.0,6.0,55,0.00,,,0.00,0,weatherlink.com 1.10,2013-11-10 01:01:00,
2013-11-09 20:16:00,43.3,28.0,30.18,SSW,200,2.0,5.0,55,0.00,,,0.00,0,weatherlink.com 1.10,2013-11-10 01:16:00,
2013-11-09 20:31:00,43.2,28.0,30.18,SW,220,0.0,6.0,55,0.00,,,0.00,0,weatherlink.com 1.10,2013-11-10 01:31:00,
2013-11-09 20:46:00,43.2,28.0,30.18,SSW,211,3.0,5.0,56,0.00,,,0.00,0,weatherlink.com 1.10,2013-11-10 01:46:00,
2013-11-09 21:01:00,43.2,29.0,30.18,SW,215,0.0,8.0,57,0.00,,,0.00,0,weatherlink.com 1.10,2013-11-10 02:01:00,
2013-11-09 21:16:00,43.0,29.0,30.18,WSW,253,1.0,6.0,57,0.00,,,0.00,0,weatherlink.com 1.10,2013-11-10 02:16:00,
2013-11-09 21:31:00,42.9,29.0,30.18,SW,217,1.0,2.0,58,0.00,,,0.00,0,weatherlink.com 1.10,2013-11-10 02:31:00,
2013-11-09 21:46:00,43.0,29.0,30.17,SSW,202,1.0,3.0,58,0.00,,,0.00,0,weatherlink.com 1.10,2013-11-10 02:46:00,
2013-11-09 22:01:00,43.1,29.0,30.16,SSW,206,0.0,6.0,58,0.00,,,0.00,0,weatherlink.com 1.10,2013-11-10 03:01:00,
2013-11-09 22:16:00,43.2,29.0,30.16,SSW,210,1.0,3.0,58,0.00,,,0.00,0,weatherlink.com 1.10,2013-11-10 03:16:00,
2013-11-09 22:31:00,43.2,29.0,30.15,SSW,212,0.0,4.0,58,0.00,,,0.00,0,weatherlink.com 1.10,2013-11-10 03:31:00,
2013-11-09 22:46:00,43.2,29.0,30.15,SSW,207,0.0,4.0,58,0.00,,,0.00,0,weatherlink.com 1.10,2013-11-10 03:46:00,
2013-11-09 23:01:00,43.1,29.0,30.14,South,180,2.0,3.0,58,0.00,,,0.00,0,weatherlink.com 1.10,2013-11-10 04:01:00,
2013-11-09 23:16:00,43.2,29.0,30.13,South,181,0.0,5.0,58,0.00,,,0.00,0,weatherlink.com 1.10,2013-11-10 04:16:00,
2013-11-09 23:31:00,43.3,30.0,30.12,South,184,0.0,5.0,59,0.00,,,0.00,0,weatherlink.com 1.10,2013-11-10 04:31:00,
2013-11-09 23:46:00,43.3,30.0,30.11,SW,214,2.0,5.0,59,0.00,,,0.00,0,weatherlink.com 1.10,2013-11-10 04:46:00,